createdAt,value
2023-01-29T00:00:17.589Z,54.99
2023-01-29T00:02:46.338Z,55.26
2023-01-29T00:05:26.927Z,55.02
2023-01-29T00:07:57.349Z,54.79
2023-01-29T00:10:26.789Z,55.06
2023-01-29T00:12:55.349Z,55.58
2023-01-29T00:15:23.761Z,55.24
2023-01-29T00:17:52.026Z,55.09
2023-01-29T00:20:20.441Z,55.26
2023-01-29T00:22:48.756Z,55.60
2023-01-29T00:25:17.156Z,55.66
2023-01-29T00:27:45.645Z,55.88
2023-01-29T00:30:16.443Z,56.19
2023-01-29T00:32:44.988Z,56.21
2023-01-29T00:35:13.827Z,56.14
2023-01-29T00:37:42.094Z,56.42
2023-01-29T00:40:11.203Z,56.65
2023-01-29T00:42:57.670Z,56.49
2023-01-29T00:45:26.009Z,56.64
2023-01-29T00:47:54.294Z,57.09
2023-01-29T00:50:22.759Z,57.03
2023-01-29T00:52:52.668Z,57.35
2023-01-29T00:55:20.939Z,57.78
2023-01-29T00:57:49.519Z,57.72
2023-01-29T01:00:19.957Z,57.78
2023-01-29T01:03:06.799Z,57.74
2023-01-29T01:05:35.580Z,57.78
2023-01-29T01:08:03.958Z,58.34
2023-01-29T01:10:34.225Z,58.16
2023-01-29T01:13:05.417Z,58.33
2023-01-29T01:15:39.128Z,58.73
2023-01-29T01:18:07.905Z,59.21
2023-01-29T01:20:37.268Z,59.39
2023-01-29T01:23:06.074Z,59.19
2023-01-29T01:25:34.511Z,59.24
2023-01-29T01:28:02.860Z,59.47
2023-01-29T01:30:31.217Z,59.97
2023-01-29T01:32:59.537Z,59.88
2023-01-29T01:35:27.915Z,60.02
2023-01-29T01:37:56.193Z,60.46
2023-01-29T01:40:26.429Z,60.32
2023-01-29T01:42:57.555Z,60.74
2023-01-29T01:45:37.460Z,61.07
2023-01-29T01:48:14.970Z,60.84
2023-01-29T01:50:49.578Z,61.00
2023-01-29T01:53:23.941Z,60.85
2023-01-29T01:55:59.718Z,60.86
2023-01-29T01:58:43.393Z,60.72
2023-01-29T02:01:13.461Z,60.55
2023-01-29T02:04:09.907Z,60.23
2023-01-29T02:06:59.753Z,60.33
2023-01-29T02:09:38.749Z,59.79
2023-01-29T02:12:10.432Z,60.08
2023-01-29T02:14:41.509Z,59.94
2023-01-29T02:17:15.481Z,60.14
2023-01-29T02:20:07.710Z,60.08
2023-01-29T02:23:06.597Z,59.66
2023-01-29T02:25:41.477Z,59.80
2023-01-29T02:28:22.452Z,59.99
2023-01-29T02:31:12.319Z,60.00
2023-01-29T02:34:07.116Z,59.64
2023-01-29T02:36:35.805Z,59.92
2023-01-29T02:39:12.753Z,59.72
2023-01-29T02:41:50.107Z,59.60
2023-01-29T02:44:45.313Z,59.53
2023-01-29T02:47:44.145Z,59.76
2023-01-29T02:50:16.535Z,59.84
2023-01-29T02:53:13.658Z,59.74
2023-01-29T02:55:47.372Z,59.66
2023-01-29T02:58:23.999Z,59.67
2023-01-29T03:00:55.481Z,59.61
2023-01-29T03:03:35.445Z,59.08
2023-01-29T03:06:08.459Z,59.31
2023-01-29T03:08:46.803Z,59.54
2023-01-29T03:11:17.533Z,59.33
2023-01-29T03:13:54.643Z,59.56
2023-01-29T03:16:35.293Z,59.87
2023-01-29T03:19:12.605Z,59.69
2023-01-29T03:21:52.204Z,59.58
2023-01-29T03:24:45.988Z,59.44
2023-01-29T03:27:37.688Z,59.63
2023-01-29T03:30:27.218Z,59.58
2023-01-29T03:32:57.695Z,59.45
2023-01-29T03:35:38.992Z,59.41
2023-01-29T03:38:13.251Z,59.52
2023-01-29T03:40:54.481Z,59.74
2023-01-29T03:43:37.517Z,59.99
2023-01-29T03:46:30.638Z,59.70
2023-01-29T03:49:10.835Z,59.89
2023-01-29T03:51:47.888Z,59.69
2023-01-29T03:54:38.741Z,59.61
2023-01-29T03:57:27.094Z,59.69
2023-01-29T04:00:22.173Z,59.83
2023-01-29T04:03:39.092Z,59.89
2023-01-29T04:06:17.808Z,59.74
2023-01-29T04:09:01.376Z,59.97
2023-01-29T04:11:31.222Z,60.19
2023-01-29T04:14:00.433Z,60.00
2023-01-29T04:16:40.768Z,60.01
2023-01-29T04:19:09.845Z,60.12
2023-01-29T04:21:40.823Z,60.10
2023-01-29T04:24:10.223Z,60.18
2023-01-29T04:26:56.561Z,60.12
2023-01-29T04:29:39.063Z,60.27
2023-01-29T04:32:25.389Z,60.29
2023-01-29T04:35:10.438Z,59.99
2023-01-29T04:37:50.162Z,60.04
2023-01-29T04:40:42.145Z,60.14
2023-01-29T04:43:29.117Z,59.87
2023-01-29T04:46:51.665Z,60.04
2023-01-29T04:49:35.960Z,59.93
2023-01-29T04:52:30.240Z,59.67
2023-01-29T04:55:07.876Z,60.30
2023-01-29T04:57:51.920Z,60.14
2023-01-29T05:00:25.472Z,60.23
2023-01-29T05:02:54.733Z,59.94
2023-01-29T05:05:23.281Z,60.16
2023-01-29T05:07:52.434Z,60.08
2023-01-29T05:10:23.055Z,60.30
2023-01-29T05:13:01.573Z,59.97
2023-01-29T05:15:41.530Z,60.18
2023-01-29T05:18:11.062Z,60.09
2023-01-29T05:20:42.488Z,60.57
2023-01-29T05:23:16.552Z,60.48
2023-01-29T05:25:46.429Z,60.21
2023-01-29T05:28:17.603Z,60.38
2023-01-29T05:30:51.218Z,60.03
2023-01-29T05:33:28.583Z,60.07
2023-01-29T05:35:58.057Z,60.33
2023-01-29T05:38:27.113Z,60.17
2023-01-29T05:40:55.667Z,60.40
2023-01-29T05:43:26.141Z,60.40
2023-01-29T05:45:58.825Z,60.21
2023-01-29T05:48:29.827Z,60.25
2023-01-29T05:51:05.851Z,60.05
2023-01-29T05:53:34.912Z,59.97
2023-01-29T05:56:04.981Z,59.82
2023-01-29T05:58:34.061Z,59.98
2023-01-29T06:01:20.253Z,59.58
2023-01-29T06:03:49.131Z,59.64
2023-01-29T06:06:18.187Z,59.82
2023-01-29T06:08:47.009Z,59.64
2023-01-29T06:11:17.277Z,59.49
2023-01-29T06:13:47.196Z,59.63
2023-01-29T06:16:16.073Z,59.66
2023-01-29T06:18:45.061Z,59.40
2023-01-29T06:21:14.777Z,59.62
2023-01-29T06:23:43.075Z,59.77
2023-01-29T06:26:16.533Z,59.75
2023-01-29T06:28:46.822Z,59.75
2023-01-29T06:31:32.995Z,59.61
2023-01-29T06:34:03.473Z,59.71
2023-01-29T06:36:31.876Z,60.15
2023-01-29T06:39:00.185Z,60.03
2023-01-29T06:41:29.445Z,60.02
2023-01-29T06:43:57.686Z,60.29
2023-01-29T06:46:25.972Z,60.26
2023-01-29T06:48:54.270Z,60.38
2023-01-29T06:51:23.873Z,60.42
2023-01-29T06:53:52.331Z,60.16
2023-01-29T06:56:20.648Z,60.34
2023-01-29T06:58:48.957Z,60.64
2023-01-29T07:01:33.407Z,60.61
2023-01-29T07:04:03.848Z,60.38
2023-01-29T07:06:32.854Z,60.84
2023-01-29T07:09:01.234Z,60.18
2023-01-29T07:11:29.604Z,60.39
2023-01-29T07:13:58.028Z,60.38
2023-01-29T07:16:27.267Z,60.57
2023-01-29T07:18:55.715Z,60.60
2023-01-29T07:21:24.188Z,60.86
2023-01-29T07:23:52.726Z,60.48
2023-01-29T07:26:21.150Z,60.64
2023-01-29T07:28:49.469Z,60.56
2023-01-29T07:31:18.017Z,60.57
2023-01-29T07:33:46.600Z,60.77
2023-01-29T07:36:17.427Z,60.98
2023-01-29T07:38:49.760Z,60.70
2023-01-29T07:41:18.376Z,60.69
2023-01-29T07:43:46.747Z,60.88
2023-01-29T07:46:15.305Z,60.47
2023-01-29T07:48:44.026Z,60.74
2023-01-29T07:51:12.365Z,60.85
2023-01-29T07:53:40.726Z,60.61
2023-01-29T07:56:09.371Z,60.20
2023-01-29T07:58:37.648Z,60.56
2023-01-29T08:01:09.184Z,60.84
2023-01-29T08:03:37.826Z,60.76
2023-01-29T08:06:06.534Z,60.88
2023-01-29T08:08:35.064Z,61.00
2023-01-29T08:11:05.101Z,60.69
2023-01-29T08:13:34.711Z,60.84
2023-01-29T08:16:04.096Z,60.63
2023-01-29T08:18:32.743Z,60.71
2023-01-29T08:21:02.373Z,60.88
2023-01-29T08:23:31.529Z,61.10
2023-01-29T08:26:00.037Z,61.06
2023-01-29T08:28:28.509Z,60.54
2023-01-29T08:30:56.864Z,60.91
2023-01-29T08:33:38.011Z,60.82
2023-01-29T08:36:07.866Z,60.58
2023-01-29T08:38:36.649Z,60.80
2023-01-29T08:41:05.057Z,60.86
2023-01-29T08:43:33.385Z,60.69
2023-01-29T08:46:01.684Z,60.86
2023-01-29T08:48:31.137Z,60.66
2023-01-29T08:51:01.163Z,60.49
2023-01-29T08:53:29.742Z,60.77
2023-01-29T08:55:58.096Z,60.97
2023-01-29T08:58:26.541Z,60.86
2023-01-29T09:00:54.948Z,60.72
2023-01-29T09:03:23.282Z,60.54
2023-01-29T09:05:51.669Z,60.64
2023-01-29T09:08:19.964Z,60.60
2023-01-29T09:10:48.235Z,60.68
2023-01-29T09:13:16.592Z,60.55
2023-01-29T09:15:44.998Z,60.33
2023-01-29T09:18:13.286Z,60.53
2023-01-29T09:20:41.648Z,60.26
2023-01-29T09:23:11.398Z,60.08
2023-01-29T09:25:39.959Z,60.15
2023-01-29T09:28:08.362Z,60.24
2023-01-29T09:30:38.624Z,60.10
2023-01-29T09:33:08.621Z,60.09
2023-01-29T09:35:37.185Z,60.15
2023-01-29T09:38:05.528Z,60.04
2023-01-29T09:41:00.661Z,59.89
2023-01-29T09:43:46.754Z,59.65
2023-01-29T09:46:44.670Z,60.22
2023-01-29T09:49:35.162Z,60.26
2023-01-29T09:52:08.958Z,60.45
2023-01-29T09:55:02.023Z,60.00
2023-01-29T09:58:00.551Z,60.47
2023-01-29T10:00:33.528Z,60.26
2023-01-29T10:03:30.791Z,60.66
2023-01-29T10:06:20.440Z,60.40
2023-01-29T10:09:09.540Z,60.23
2023-01-29T10:11:47.388Z,60.23
2023-01-29T10:14:41.318Z,60.33
2023-01-29T10:17:25.389Z,60.12
2023-01-29T10:20:14.072Z,60.58
2023-01-29T10:23:01.286Z,60.49
2023-01-29T10:25:29.917Z,60.63
2023-01-29T10:28:00.788Z,60.71
2023-01-29T10:30:45.471Z,60.80
2023-01-29T10:33:59.471Z,60.48
2023-01-29T10:36:50.332Z,60.26
2023-01-29T10:39:20.700Z,60.14
2023-01-29T10:42:19.952Z,59.72
2023-01-29T10:45:20.748Z,59.90
2023-01-29T10:48:19.882Z,59.73
2023-01-29T10:51:03.877Z,59.76
2023-01-29T10:53:43.272Z,59.53
2023-01-29T10:56:47.042Z,59.45
2023-01-29T11:00:02.743Z,59.38
2023-01-29T11:02:31.050Z,59.47
2023-01-29T11:04:59.366Z,59.19
2023-01-29T11:07:28.728Z,59.33
2023-01-29T11:10:08.586Z,59.16
2023-01-29T11:12:39.244Z,59.08
2023-01-29T11:15:34.260Z,58.83
2023-01-29T11:18:16.242Z,59.10
2023-01-29T11:20:46.771Z,59.11
2023-01-29T11:23:32.693Z,59.25
2023-01-29T11:26:02.178Z,59.21
2023-01-29T11:28:44.826Z,59.31
2023-01-29T11:31:36.340Z,59.13
2023-01-29T11:34:19.547Z,58.98
2023-01-29T11:36:48.097Z,59.34
2023-01-29T11:39:22.284Z,59.31
2023-01-29T11:42:05.343Z,59.31
2023-01-29T11:44:43.486Z,59.24
2023-01-29T11:47:29.001Z,59.23
2023-01-29T11:50:03.330Z,59.33
2023-01-29T11:52:40.311Z,59.34
2023-01-29T11:55:19.066Z,59.55
2023-01-29T11:57:55.029Z,59.91
2023-01-29T12:00:33.001Z,59.66
2023-01-29T12:03:25.207Z,59.79
2023-01-29T12:06:07.020Z,59.90
2023-01-29T12:08:40.154Z,59.82
2023-01-29T12:11:27.158Z,59.95
2023-01-29T12:13:57.663Z,60.04
2023-01-29T12:17:00.983Z,60.18
2023-01-29T12:19:32.833Z,60.01
2023-01-29T12:22:21.676Z,60.42
2023-01-29T12:25:09.152Z,60.41
2023-01-29T12:27:51.495Z,60.28
2023-01-29T12:30:28.902Z,60.14
2023-01-29T12:32:59.753Z,60.25
2023-01-29T12:35:58.508Z,60.00
2023-01-29T12:38:27.600Z,60.65
2023-01-29T12:41:10.506Z,60.67
2023-01-29T12:43:58.885Z,61.05
2023-01-29T12:46:31.482Z,61.69
2023-01-29T12:49:04.311Z,61.69
2023-01-29T12:51:41.593Z,62.01
2023-01-29T12:54:22.719Z,62.37
2023-01-29T12:56:55.518Z,62.52
2023-01-29T13:00:19.229Z,62.34
2023-01-29T13:02:55.637Z,62.46
2023-01-29T13:05:48.929Z,62.70
2023-01-29T13:08:29.405Z,62.80
2023-01-29T13:11:01.888Z,62.85
2023-01-29T13:13:45.169Z,62.86
2023-01-29T13:16:16.700Z,62.83
2023-01-29T13:18:45.409Z,63.08
2023-01-29T13:21:21.766Z,63.30
2023-01-29T13:23:57.151Z,63.36
2023-01-29T13:26:27.447Z,63.57
2023-01-29T13:28:56.393Z,63.61
2023-01-29T13:31:27.775Z,63.64
2023-01-29T13:34:34.671Z,64.01
2023-01-29T13:37:10.464Z,63.67
2023-01-29T13:39:47.849Z,63.83
2023-01-29T13:42:38.269Z,63.78
2023-01-29T13:45:08.419Z,63.93
2023-01-29T13:47:41.808Z,63.76
2023-01-29T13:50:18.577Z,63.98
2023-01-29T13:53:09.187Z,63.99
2023-01-29T13:55:40.308Z,63.87
2023-01-29T13:58:16.257Z,64.05
2023-01-29T14:00:44.619Z,64.19
2023-01-29T14:03:12.804Z,64.35
2023-01-29T14:05:47.214Z,64.44
2023-01-29T14:08:16.148Z,64.72
2023-01-29T14:10:45.549Z,64.45
2023-01-29T14:13:19.594Z,64.55
2023-01-29T14:16:13.724Z,64.75
2023-01-29T14:18:56.354Z,64.69
2023-01-29T14:21:30.657Z,64.76
2023-01-29T14:24:09.694Z,65.12
2023-01-29T14:26:48.365Z,65.10
2023-01-29T14:29:34.322Z,65.04
2023-01-29T14:32:12.337Z,65.01
2023-01-29T14:34:51.373Z,64.98
2023-01-29T14:37:31.389Z,65.20
2023-01-29T14:40:09.793Z,65.37
2023-01-29T14:42:45.609Z,65.41
2023-01-29T14:45:29.988Z,65.46
2023-01-29T14:48:00.447Z,64.97
2023-01-29T14:50:34.248Z,65.02
2023-01-29T14:53:24.068Z,65.08
2023-01-29T14:56:11.665Z,65.35
2023-01-29T14:58:58.028Z,65.70
2023-01-29T15:01:38.273Z,65.90
2023-01-29T15:04:19.830Z,65.96
2023-01-29T15:06:53.979Z,66.19
2023-01-29T15:09:40.779Z,66.49
2023-01-29T15:12:45.909Z,66.73
2023-01-29T15:15:27.456Z,66.69
2023-01-29T15:18:03.718Z,66.81
2023-01-29T15:20:33.517Z,66.66
2023-01-29T15:23:06.964Z,66.98
2023-01-29T15:25:48.619Z,66.92
2023-01-29T15:28:17.228Z,66.81
2023-01-29T15:30:46.190Z,66.74
2023-01-29T15:33:16.085Z,66.70
2023-01-29T15:35:45.114Z,66.85
2023-01-29T15:38:24.968Z,66.76
2023-01-29T15:41:01.350Z,66.54
2023-01-29T15:43:47.050Z,66.54
2023-01-29T15:46:28.646Z,66.83
2023-01-29T15:48:59.383Z,67.06
2023-01-29T15:51:29.644Z,67.08
2023-01-29T15:54:13.039Z,67.12
2023-01-29T15:56:45.069Z,67.13
2023-01-29T15:59:20.340Z,66.73
2023-01-29T16:01:48.712Z,66.91
2023-01-29T16:04:25.214Z,66.73
2023-01-29T16:06:55.621Z,66.88
2023-01-29T16:09:27.427Z,67.11
2023-01-29T16:11:58.691Z,67.40
2023-01-29T16:14:27.924Z,67.46
2023-01-29T16:16:56.297Z,67.45
2023-01-29T16:19:27.472Z,67.34
2023-01-29T16:22:04.373Z,67.35
2023-01-29T16:24:35.655Z,67.32
2023-01-29T16:27:12.497Z,67.49
2023-01-29T16:29:40.952Z,67.51
2023-01-29T16:32:13.267Z,67.24
2023-01-29T16:34:49.043Z,67.14
2023-01-29T16:37:28.772Z,66.99
2023-01-29T16:39:57.642Z,66.80
2023-01-29T16:42:31.096Z,66.61
2023-01-29T16:45:00.642Z,66.34
2023-01-29T16:47:42.287Z,66.15
2023-01-29T16:50:46.219Z,66.11
2023-01-29T16:53:25.994Z,65.95
2023-01-29T16:55:54.425Z,65.93
2023-01-29T16:58:31.293Z,65.67
2023-01-29T17:01:04.047Z,65.65
2023-01-29T17:03:35.232Z,65.37
2023-01-29T17:06:18.441Z,64.93
2023-01-29T17:08:47.205Z,65.08
2023-01-29T17:11:27.654Z,65.27
2023-01-29T17:13:58.061Z,65.24
2023-01-29T17:16:32.849Z,64.63
2023-01-29T17:19:01.906Z,64.77
2023-01-29T17:21:31.530Z,64.57
2023-01-29T17:23:59.795Z,64.53
2023-01-29T17:26:28.303Z,64.52
2023-01-29T17:28:56.678Z,64.38
2023-01-29T17:31:25.184Z,63.65
2023-01-29T17:33:53.562Z,63.77
2023-01-29T17:36:21.993Z,63.59
2023-01-29T17:38:50.313Z,63.05
2023-01-29T17:41:29.748Z,63.19
2023-01-29T17:43:58.138Z,62.87
2023-01-29T17:46:26.488Z,62.85
2023-01-29T17:48:55.112Z,62.54
2023-01-29T17:51:24.949Z,62.42
2023-01-29T17:53:53.400Z,62.55
2023-01-29T17:56:33.167Z,62.34
2023-01-29T17:59:01.866Z,62.41
2023-01-29T18:01:30.128Z,62.42
2023-01-29T18:03:58.451Z,62.80
2023-01-29T18:06:29.772Z,63.00
2023-01-29T18:08:58.483Z,63.94
2023-01-29T18:11:26.930Z,64.00
2023-01-29T18:13:55.786Z,64.53
2023-01-29T18:16:24.861Z,64.73
2023-01-29T18:18:53.977Z,65.03
2023-01-29T18:21:22.338Z,65.24
2023-01-29T18:23:50.659Z,65.05
2023-01-29T18:26:19.032Z,65.08
2023-01-29T18:28:47.472Z,65.12
2023-01-29T18:31:15.783Z,65.05
2023-01-29T18:33:44.174Z,65.27
2023-01-29T18:36:12.611Z,65.28
2023-01-29T18:38:40.966Z,64.74
2023-01-29T18:41:12.173Z,64.66
2023-01-29T18:43:42.057Z,64.35
2023-01-29T18:46:11.034Z,64.77
2023-01-29T18:48:41.595Z,64.58
2023-01-29T18:51:10.824Z,64.76
2023-01-29T18:53:39.136Z,64.68
2023-01-29T18:56:08.264Z,64.57
2023-01-29T18:58:37.735Z,64.47
2023-01-29T19:01:10.302Z,64.20
2023-01-29T19:03:39.816Z,63.98
2023-01-29T19:06:11.091Z,64.24
2023-01-29T19:08:40.496Z,63.92
2023-01-29T19:11:09.860Z,63.82
2023-01-29T19:13:38.946Z,63.57
2023-01-29T19:16:12.904Z,62.33
2023-01-29T19:18:41.479Z,62.28
2023-01-29T19:21:13.249Z,61.59
2023-01-29T19:23:43.055Z,60.82
2023-01-29T19:26:11.991Z,60.61
2023-01-29T19:28:40.649Z,60.18
2023-01-29T19:31:10.233Z,60.38
2023-01-29T19:33:39.744Z,60.43
2023-01-29T19:36:08.403Z,59.16
2023-01-29T19:38:39.458Z,59.59
2023-01-29T19:41:07.961Z,59.51
2023-01-29T19:43:36.256Z,59.56
2023-01-29T19:46:04.813Z,59.84
2023-01-29T19:48:33.186Z,59.05
2023-01-29T19:51:05.157Z,58.75
2023-01-29T19:53:33.874Z,58.93
2023-01-29T19:56:08.038Z,59.16
2023-01-29T19:58:36.745Z,59.15
2023-01-29T20:01:15.330Z,58.83
2023-01-29T20:03:44.009Z,58.15
2023-01-29T20:06:12.585Z,58.00
2023-01-29T20:08:40.825Z,58.09
2023-01-29T20:11:10.697Z,57.46
2023-01-29T20:13:39.148Z,57.44
2023-01-29T20:16:07.884Z,57.28
2023-01-29T20:18:36.176Z,56.68
2023-01-29T20:21:10.715Z,56.39
2023-01-29T20:23:40.860Z,55.98
2023-01-29T20:26:12.475Z,55.89
2023-01-29T20:28:41.043Z,56.52
2023-01-29T20:31:10.924Z,55.87
2023-01-29T20:33:39.870Z,55.65
2023-01-29T20:36:11.410Z,55.79
2023-01-29T20:38:39.744Z,55.94
2023-01-29T20:41:09.244Z,56.07
2023-01-29T20:43:37.804Z,55.68
2023-01-29T20:46:06.729Z,55.53
2023-01-29T20:48:35.295Z,55.39
2023-01-29T20:51:13.895Z,55.20
2023-01-29T20:53:44.290Z,55.26
2023-01-29T20:56:13.055Z,54.75
2023-01-29T20:58:44.593Z,54.54
2023-01-29T21:01:16.336Z,53.98
2023-01-29T21:03:45.046Z,53.63
2023-01-29T21:06:14.413Z,53.37
2023-01-29T21:08:43.114Z,53.56
2023-01-29T21:11:12.245Z,53.01
2023-01-29T21:13:40.730Z,52.73
2023-01-29T21:16:11.574Z,52.16
2023-01-29T21:18:40.401Z,52.07
2023-01-29T21:21:08.651Z,52.25
2023-01-29T21:23:36.937Z,52.60
2023-01-29T21:26:06.535Z,52.38
2023-01-29T21:28:35.670Z,52.18
2023-01-29T21:31:11.895Z,52.20
2023-01-29T21:33:40.165Z,51.91
2023-01-29T21:36:09.313Z,52.64
2023-01-29T21:38:37.903Z,51.78
2023-01-29T21:41:09.837Z,51.60
2023-01-29T21:43:39.054Z,52.32
2023-01-29T21:46:12.539Z,52.18
2023-01-29T21:48:41.411Z,52.48
2023-01-29T21:51:10.113Z,52.00
2023-01-29T21:53:38.629Z,52.57
2023-01-29T21:56:07.292Z,52.81
2023-01-29T21:58:35.598Z,52.94
2023-01-29T22:01:35.549Z,53.21
2023-01-29T22:03:52.155Z,53.41
2023-01-29T22:06:20.494Z,53.85
2023-01-29T22:08:50.110Z,53.88
2023-01-29T22:11:18.568Z,54.04
2023-01-29T22:13:46.942Z,54.51
2023-01-29T22:16:15.374Z,54.19
2023-01-29T22:18:43.671Z,54.33
2023-01-29T22:21:12.250Z,54.71
2023-01-29T22:23:40.637Z,54.53
2023-01-29T22:26:10.653Z,53.88
2023-01-29T22:28:38.998Z,53.21
2023-01-29T22:31:07.445Z,53.08
2023-01-29T22:33:36.128Z,52.83
2023-01-29T22:36:05.313Z,52.97
2023-01-29T22:38:33.598Z,53.33
2023-01-29T22:41:02.080Z,53.09
2023-01-29T22:43:30.332Z,52.86
2023-01-29T22:45:58.837Z,52.70
2023-01-29T22:48:27.780Z,53.01
2023-01-29T22:51:12.813Z,53.15
2023-01-29T22:53:45.325Z,52.09
2023-01-29T22:56:13.994Z,52.67
2023-01-29T22:58:42.275Z,52.47
2023-01-29T23:01:10.987Z,52.66
2023-01-29T23:03:39.259Z,52.90
2023-01-29T23:06:07.654Z,53.60
2023-01-29T23:08:35.928Z,53.33
2023-01-29T23:11:14.886Z,53.58
2023-01-29T23:13:45.073Z,53.78
2023-01-29T23:16:14.644Z,54.54
2023-01-29T23:18:43.853Z,54.77
2023-01-29T23:21:13.409Z,54.47
2023-01-29T23:23:44.062Z,54.68
2023-01-29T23:26:32.137Z,54.76
2023-01-29T23:29:01.423Z,54.54
2023-01-29T23:31:29.877Z,54.54
2023-01-29T23:33:58.243Z,54.95
2023-01-29T23:36:26.539Z,54.87
2023-01-29T23:38:54.917Z,55.24
2023-01-29T23:41:23.271Z,55.31
2023-01-29T23:43:54.840Z,55.55
2023-01-29T23:46:23.187Z,55.53
2023-01-29T23:48:51.510Z,55.61
2023-01-29T23:51:19.881Z,56.07
2023-01-29T23:53:48.183Z,56.11
2023-01-29T23:56:16.563Z,56.33
2023-01-29T23:58:45.752Z,56.38
